Weather at Cherry Capital Airport

Public forecast

Using degrees Fahrenheit for public forecast. Weather courtesy of forecast.io.

Current aviation weather report (METAR) for Cherry Capital Airport

2024/05/22 04:53 (retrieved 14 minutes ago)

KTVC 220453Z AUTO 15007G16KT CLR 23/18 A2954 RMK AO2 SLP999 T02330178 402890156

Closest aviation forecast (TAF) to Cherry Capital Airport

Forecast is more than 6 hours old.

Closest forecast is Gore Bay Manitoulin Airport, 144.6 nm (267.8 km) ENE.

2024/05/21 20:00 (retrieved 9 hours ago)

TAF CYZE 211940Z 2120/2122 25005KT P6SM FEW220 RMK FCST BASED ON AUTO OBS NXT FCST BY 221000Z